sensor_id;sensor_type;location;lat;lon;timestamp;P1;durP1;ratioP1;P2;durP2;ratioP2
249;SDS011;109;19.806;-70.704;2024-02-04T00:02:01;19.10;;;5.30;;
249;SDS011;109;19.806;-70.704;2024-02-04T00:04:36;14.23;;;5.07;;
249;SDS011;109;19.806;-70.704;2024-02-04T00:07:03;15.63;;;5.00;;
249;SDS011;109;19.806;-70.704;2024-02-04T00:09:36;20.87;;;5.43;;
249;SDS011;109;19.806;-70.704;2024-02-04T00:12:02;11.40;;;4.33;;
249;SDS011;109;19.806;-70.704;2024-02-04T00:14:36;15.00;;;5.17;;
249;SDS011;109;19.806;-70.704;2024-02-04T00:17:02;19.83;;;8.07;;
249;SDS011;109;19.806;-70.704;2024-02-04T00:19:36;22.83;;;4.80;;
249;SDS011;109;19.806;-70.704;2024-02-04T00:22:02;13.53;;;4.70;;
249;SDS011;109;19.806;-70.704;2024-02-04T00:24:35;19.60;;;5.23;;
249;SDS011;109;19.806;-70.704;2024-02-04T00:27:04;19.87;;;4.70;;
249;SDS011;109;19.806;-70.704;2024-02-04T00:29:37;18.97;;;5.23;;
249;SDS011;109;19.806;-70.704;2024-02-04T00:32:03;15.53;;;5.40;;
249;SDS011;109;19.806;-70.704;2024-02-04T00:34:37;19.70;;;6.00;;
249;SDS011;109;19.806;-70.704;2024-02-04T00:37:10;14.83;;;4.57;;
249;SDS011;109;19.806;-70.704;2024-02-04T00:39:43;8.80;;;4.73;;
249;SDS011;109;19.806;-70.704;2024-02-04T00:42:09;17.83;;;5.17;;
249;SDS011;109;19.806;-70.704;2024-02-04T00:44:49;14.37;;;5.03;;
249;SDS011;109;19.806;-70.704;2024-02-04T00:47:16;18.87;;;5.53;;
249;SDS011;109;19.806;-70.704;2024-02-04T00:49:49;14.70;;;5.17;;
249;SDS011;109;19.806;-70.704;2024-02-04T00:52:15;15.60;;;5.03;;
249;SDS011;109;19.806;-70.704;2024-02-04T00:54:48;13.17;;;4.70;;
249;SDS011;109;19.806;-70.704;2024-02-04T00:57:14;23.10;;;5.60;;
249;SDS011;109;19.806;-70.704;2024-02-04T00:59:47;21.67;;;5.20;;
249;SDS011;109;19.806;-70.704;2024-02-04T01:02:13;14.80;;;5.17;;
249;SDS011;109;19.806;-70.704;2024-02-04T01:04:46;15.80;;;4.93;;
249;SDS011;109;19.806;-70.704;2024-02-04T01:07:14;13.40;;;4.63;;
249;SDS011;109;19.806;-70.704;2024-02-04T01:09:47;15.30;;;5.27;;
249;SDS011;109;19.806;-70.704;2024-02-04T01:12:13;19.93;;;5.50;;
249;SDS011;109;19.806;-70.704;2024-02-04T01:14:46;18.40;;;5.70;;
249;SDS011;109;19.806;-70.704;2024-02-04T01:17:12;28.47;;;5.87;;
249;SDS011;109;19.806;-70.704;2024-02-04T01:19:45;15.80;;;5.93;;
249;SDS011;109;19.806;-70.704;2024-02-04T01:22:14;16.23;;;6.17;;
249;SDS011;109;19.806;-70.704;2024-02-04T01:24:47;24.70;;;5.80;;
249;SDS011;109;19.806;-70.704;2024-02-04T01:27:15;22.87;;;5.03;;
249;SDS011;109;19.806;-70.704;2024-02-04T01:29:48;12.40;;;5.03;;
249;SDS011;109;19.806;-70.704;2024-02-04T01:32:14;19.00;;;6.10;;
249;SDS011;109;19.806;-70.704;2024-02-04T01:34:55;15.97;;;5.50;;
249;SDS011;109;19.806;-70.704;2024-02-04T01:37:36;16.63;;;5.60;;
249;SDS011;109;19.806;-70.704;2024-02-04T01:40:02;16.60;;;5.30;;
249;SDS011;109;19.806;-70.704;2024-02-04T01:42:37;19.47;;;5.00;;
249;SDS011;109;19.806;-70.704;2024-02-04T01:45:03;9.77;;;4.50;;
249;SDS011;109;19.806;-70.704;2024-02-04T01:47:37;24.07;;;4.80;;
249;SDS011;109;19.806;-70.704;2024-02-04T01:50:04;13.50;;;4.43;;
249;SDS011;109;19.806;-70.704;2024-02-04T01:52:38;31.77;;;5.60;;
249;SDS011;109;19.806;-70.704;2024-02-04T01:55:05;29.23;;;5.13;;
249;SDS011;109;19.806;-70.704;2024-02-04T01:57:40;18.27;;;4.33;;
249;SDS011;109;19.806;-70.704;2024-02-04T02:00:07;14.73;;;4.50;;
249;SDS011;109;19.806;-70.704;2024-02-04T02:02:42;10.40;;;4.23;;
249;SDS011;109;19.806;-70.704;2024-02-04T02:05:11;10.37;;;4.20;;
249;SDS011;109;19.806;-70.704;2024-02-04T02:07:44;14.83;;;4.60;;
249;SDS011;109;19.806;-70.704;2024-02-04T02:10:13;22.93;;;4.40;;
249;SDS011;109;19.806;-70.704;2024-02-04T02:12:55;14.87;;;4.20;;
249;SDS011;109;19.806;-70.704;2024-02-04T02:15:35;11.40;;;4.57;;
249;SDS011;109;19.806;-70.704;2024-02-04T02:18:57;16.20;;;5.60;;
249;SDS011;109;19.806;-70.704;2024-02-04T02:26:58;18.07;;;5.40;;
249;SDS011;109;19.806;-70.704;2024-02-04T02:29:25;13.37;;;5.23;;
249;SDS011;109;19.806;-70.704;2024-02-04T02:31:58;13.70;;;4.60;;
249;SDS011;109;19.806;-70.704;2024-02-04T02:34:35;14.53;;;5.10;;
249;SDS011;109;19.806;-70.704;2024-02-04T02:37:14;18.80;;;5.57;;
249;SDS011;109;19.806;-70.704;2024-02-04T02:39:56;19.10;;;5.00;;
249;SDS011;109;19.806;-70.704;2024-02-04T02:42:37;9.53;;;4.20;;
249;SDS011;109;19.806;-70.704;2024-02-04T02:45:15;25.27;;;5.03;;
249;SDS011;109;19.806;-70.704;2024-02-04T02:47:52;21.43;;;5.80;;
249;SDS011;109;19.806;-70.704;2024-02-04T02:50:20;26.43;;;5.00;;
249;SDS011;109;19.806;-70.704;2024-02-04T02:52:55;25.03;;;4.60;;
249;SDS011;109;19.806;-70.704;2024-02-04T02:55:21;20.20;;;5.37;;
249;SDS011;109;19.806;-70.704;2024-02-04T02:57:54;19.77;;;4.77;;
249;SDS011;109;19.806;-70.704;2024-02-04T03:00:20;14.03;;;4.90;;
249;SDS011;109;19.806;-70.704;2024-02-04T03:02:54;14.87;;;5.23;;
249;SDS011;109;19.806;-70.704;2024-02-04T03:05:21;17.53;;;4.70;;
249;SDS011;109;19.806;-70.704;2024-02-04T03:07:54;13.87;;;4.10;;
249;SDS011;109;19.806;-70.704;2024-02-04T03:10:20;9.57;;;4.03;;
249;SDS011;109;19.806;-70.704;2024-02-04T03:12:53;20.30;;;4.93;;
249;SDS011;109;19.806;-70.704;2024-02-04T03:15:19;9.53;;;4.40;;
249;SDS011;109;19.806;-70.704;2024-02-04T03:17:52;11.93;;;4.60;;
249;SDS011;109;19.806;-70.704;2024-02-04T03:20:18;18.10;;;4.83;;
249;SDS011;109;19.806;-70.704;2024-02-04T03:22:51;13.10;;;4.63;;
249;SDS011;109;19.806;-70.704;2024-02-04T03:25:18;15.87;;;4.70;;
249;SDS011;109;19.806;-70.704;2024-02-04T03:27:51;9.43;;;4.63;;
249;SDS011;109;19.806;-70.704;2024-02-04T03:30:21;12.53;;;4.20;;
249;SDS011;109;19.806;-70.704;2024-02-04T03:32:54;19.80;;;5.10;;
249;SDS011;109;19.806;-70.704;2024-02-04T03:35:21;20.27;;;5.37;;
249;SDS011;109;19.806;-70.704;2024-02-04T03:38:01;31.20;;;5.20;;
249;SDS011;109;19.806;-70.704;2024-02-04T03:40:34;15.93;;;4.20;;
249;SDS011;109;19.806;-70.704;2024-02-04T03:43:01;16.20;;;4.67;;
249;SDS011;109;19.806;-70.704;2024-02-04T03:45:37;16.53;;;4.77;;
249;SDS011;109;19.806;-70.704;2024-02-04T03:48:04;12.40;;;4.20;;
249;SDS011;109;19.806;-70.704;2024-02-04T03:50:37;19.97;;;6.20;;
249;SDS011;109;19.806;-70.704;2024-02-04T03:53:03;17.67;;;5.27;;
249;SDS011;109;19.806;-70.704;2024-02-04T03:55:36;14.70;;;4.50;;
249;SDS011;109;19.806;-70.704;2024-02-04T03:58:03;14.77;;;4.17;;
249;SDS011;109;19.806;-70.704;2024-02-04T04:00:36;13.70;;;4.03;;
249;SDS011;109;19.806;-70.704;2024-02-04T04:03:02;16.97;;;4.30;;
249;SDS011;109;19.806;-70.704;2024-02-04T04:05:36;13.30;;;4.20;;
249;SDS011;109;19.806;-70.704;2024-02-04T04:08:02;14.80;;;4.10;;
249;SDS011;109;19.806;-70.704;2024-02-04T04:10:36;12.90;;;4.13;;
249;SDS011;109;19.806;-70.704;2024-02-04T04:13:02;25.10;;;5.27;;
249;SDS011;109;19.806;-70.704;2024-02-04T04:15:35;22.10;;;4.37;;
249;SDS011;109;19.806;-70.704;2024-02-04T04:18:02;21.20;;;4.77;;
249;SDS011;109;19.806;-70.704;2024-02-04T04:20:35;12.07;;;4.53;;
249;SDS011;109;19.806;-70.704;2024-02-04T04:23:01;10.50;;;4.07;;
249;SDS011;109;19.806;-70.704;2024-02-04T04:25:34;9.87;;;4.23;;
249;SDS011;109;19.806;-70.704;2024-02-04T04:28:00;17.70;;;4.30;;
249;SDS011;109;19.806;-70.704;2024-02-04T04:30:33;21.47;;;4.50;;
249;SDS011;109;19.806;-70.704;2024-02-04T04:32:59;22.10;;;4.30;;
249;SDS011;109;19.806;-70.704;2024-02-04T04:35:32;12.27;;;3.97;;
249;SDS011;109;19.806;-70.704;2024-02-04T04:38:12;14.80;;;4.10;;
249;SDS011;109;19.806;-70.704;2024-02-04T04:40:38;15.03;;;4.00;;
249;SDS011;109;19.806;-70.704;2024-02-04T04:43:14;16.40;;;4.60;;
249;SDS011;109;19.806;-70.704;2024-02-04T04:45:40;10.60;;;4.30;;
249;SDS011;109;19.806;-70.704;2024-02-04T04:48:13;18.23;;;5.30;;
249;SDS011;109;19.806;-70.704;2024-02-04T04:50:39;16.00;;;4.77;;
249;SDS011;109;19.806;-70.704;2024-02-04T04:53:12;14.77;;;4.33;;
249;SDS011;109;19.806;-70.704;2024-02-04T04:55:38;14.90;;;4.50;;
249;SDS011;109;19.806;-70.704;2024-02-04T04:58:11;11.07;;;3.93;;
249;SDS011;109;19.806;-70.704;2024-02-04T05:00:37;19.30;;;4.53;;
249;SDS011;109;19.806;-70.704;2024-02-04T05:03:10;10.23;;;4.20;;
249;SDS011;109;19.806;-70.704;2024-02-04T05:05:36;15.67;;;4.10;;
249;SDS011;109;19.806;-70.704;2024-02-04T05:08:09;13.07;;;4.27;;
249;SDS011;109;19.806;-70.704;2024-02-04T05:10:39;15.23;;;4.10;;
249;SDS011;109;19.806;-70.704;2024-02-04T05:13:11;19.43;;;4.83;;
249;SDS011;109;19.806;-70.704;2024-02-04T05:15:37;25.33;;;4.37;;
249;SDS011;109;19.806;-70.704;2024-02-04T05:18:10;19.10;;;4.70;;
249;SDS011;109;19.806;-70.704;2024-02-04T05:20:36;19.23;;;4.60;;
249;SDS011;109;19.806;-70.704;2024-02-04T05:23:09;17.60;;;4.97;;
249;SDS011;109;19.806;-70.704;2024-02-04T05:25:35;15.30;;;3.97;;
249;SDS011;109;19.806;-70.704;2024-02-04T05:28:08;17.77;;;4.50;;
249;SDS011;109;19.806;-70.704;2024-02-04T05:30:35;21.87;;;5.70;;
249;SDS011;109;19.806;-70.704;2024-02-04T05:33:07;18.77;;;4.80;;
249;SDS011;109;19.806;-70.704;2024-02-04T05:35:33;15.63;;;4.00;;
249;SDS011;109;19.806;-70.704;2024-02-04T05:38:23;17.53;;;3.97;;
249;SDS011;109;19.806;-70.704;2024-02-04T05:40:56;20.23;;;4.47;;
249;SDS011;109;19.806;-70.704;2024-02-04T05:43:23;20.73;;;4.90;;
249;SDS011;109;19.806;-70.704;2024-02-04T05:45:56;19.50;;;4.33;;
249;SDS011;109;19.806;-70.704;2024-02-04T05:48:22;13.73;;;4.43;;
249;SDS011;109;19.806;-70.704;2024-02-04T05:50:55;19.23;;;4.10;;
249;SDS011;109;19.806;-70.704;2024-02-04T05:53:21;15.00;;;4.00;;
249;SDS011;109;19.806;-70.704;2024-02-04T05:55:54;15.47;;;4.60;;
249;SDS011;109;19.806;-70.704;2024-02-04T05:58:20;16.47;;;3.80;;
249;SDS011;109;19.806;-70.704;2024-02-04T06:00:53;18.20;;;4.50;;
249;SDS011;109;19.806;-70.704;2024-02-04T06:03:19;15.67;;;4.10;;
249;SDS011;109;19.806;-70.704;2024-02-04T06:05:54;17.70;;;4.53;;
249;SDS011;109;19.806;-70.704;2024-02-04T06:08:21;11.07;;;3.83;;
249;SDS011;109;19.806;-70.704;2024-02-04T06:10:54;15.10;;;4.23;;
249;SDS011;109;19.806;-70.704;2024-02-04T06:13:21;20.00;;;4.80;;
249;SDS011;109;19.806;-70.704;2024-02-04T06:15:53;11.63;;;4.00;;
249;SDS011;109;19.806;-70.704;2024-02-04T06:18:19;19.13;;;4.03;;
249;SDS011;109;19.806;-70.704;2024-02-04T06:20:52;16.67;;;4.43;;
249;SDS011;109;19.806;-70.704;2024-02-04T06:23:18;8.90;;;4.00;;
249;SDS011;109;19.806;-70.704;2024-02-04T06:25:51;13.17;;;4.20;;
249;SDS011;109;19.806;-70.704;2024-02-04T06:28:17;15.90;;;4.60;;
249;SDS011;109;19.806;-70.704;2024-02-04T06:30:50;14.83;;;3.93;;
249;SDS011;109;19.806;-70.704;2024-02-04T06:33:17;17.50;;;5.00;;
249;SDS011;109;19.806;-70.704;2024-02-04T06:35:50;15.73;;;4.27;;
249;SDS011;109;19.806;-70.704;2024-02-04T06:38:47;14.37;;;4.37;;
249;SDS011;109;19.806;-70.704;2024-02-04T06:41:20;15.57;;;4.47;;
249;SDS011;109;19.806;-70.704;2024-02-04T06:44:01;16.50;;;5.23;;
249;SDS011;109;19.806;-70.704;2024-02-04T06:46:38;14.17;;;4.17;;
249;SDS011;109;19.806;-70.704;2024-02-04T06:49:04;16.57;;;4.07;;
249;SDS011;109;19.806;-70.704;2024-02-04T06:51:37;21.03;;;4.37;;
249;SDS011;109;19.806;-70.704;2024-02-04T06:54:03;15.83;;;4.10;;
249;SDS011;109;19.806;-70.704;2024-02-04T06:56:36;18.10;;;4.50;;
249;SDS011;109;19.806;-70.704;2024-02-04T06:59:02;8.80;;;3.50;;
249;SDS011;109;19.806;-70.704;2024-02-04T07:01:35;11.63;;;4.73;;
249;SDS011;109;19.806;-70.704;2024-02-04T07:04:01;13.30;;;4.73;;
249;SDS011;109;19.806;-70.704;2024-02-04T07:06:34;17.60;;;4.57;;
249;SDS011;109;19.806;-70.704;2024-02-04T07:09:00;15.77;;;4.50;;
249;SDS011;109;19.806;-70.704;2024-02-04T07:11:33;14.27;;;4.90;;
249;SDS011;109;19.806;-70.704;2024-02-04T07:13:59;21.57;;;5.40;;
249;SDS011;109;19.806;-70.704;2024-02-04T07:16:32;14.80;;;4.93;;
249;SDS011;109;19.806;-70.704;2024-02-04T07:18:59;12.90;;;4.80;;
249;SDS011;109;19.806;-70.704;2024-02-04T07:21:31;24.97;;;6.20;;
249;SDS011;109;19.806;-70.704;2024-02-04T07:23:57;16.07;;;5.17;;
249;SDS011;109;19.806;-70.704;2024-02-04T07:26:30;22.30;;;5.77;;
249;SDS011;109;19.806;-70.704;2024-02-04T07:28:56;14.50;;;4.13;;
249;SDS011;109;19.806;-70.704;2024-02-04T07:31:29;12.57;;;4.40;;
249;SDS011;109;19.806;-70.704;2024-02-04T07:33:56;19.30;;;4.13;;
249;SDS011;109;19.806;-70.704;2024-02-04T07:36:35;13.73;;;3.70;;
249;SDS011;109;19.806;-70.704;2024-02-04T07:39:15;13.13;;;3.83;;
249;SDS011;109;19.806;-70.704;2024-02-04T07:41:42;14.33;;;4.30;;
249;SDS011;109;19.806;-70.704;2024-02-04T07:44:14;13.30;;;3.70;;
249;SDS011;109;19.806;-70.704;2024-02-04T07:46:47;10.47;;;4.20;;
249;SDS011;109;19.806;-70.704;2024-02-04T07:49:20;17.47;;;4.00;;
249;SDS011;109;19.806;-70.704;2024-02-04T07:51:47;9.67;;;4.20;;
249;SDS011;109;19.806;-70.704;2024-02-04T07:54:20;28.47;;;4.27;;
249;SDS011;109;19.806;-70.704;2024-02-04T07:56:46;32.03;;;5.07;;
249;SDS011;109;19.806;-70.704;2024-02-04T07:59:22;15.50;;;4.40;;
249;SDS011;109;19.806;-70.704;2024-02-04T08:01:48;19.33;;;4.80;;
249;SDS011;109;19.806;-70.704;2024-02-04T08:04:21;15.80;;;3.83;;
249;SDS011;109;19.806;-70.704;2024-02-04T08:06:48;12.00;;;3.63;;
249;SDS011;109;19.806;-70.704;2024-02-04T08:09:21;11.67;;;3.60;;
249;SDS011;109;19.806;-70.704;2024-02-04T08:11:47;11.90;;;3.73;;
249;SDS011;109;19.806;-70.704;2024-02-04T08:14:20;18.63;;;4.20;;
249;SDS011;109;19.806;-70.704;2024-02-04T08:16:47;14.47;;;4.40;;
249;SDS011;109;19.806;-70.704;2024-02-04T08:19:20;15.00;;;3.90;;
249;SDS011;109;19.806;-70.704;2024-02-04T08:21:47;15.00;;;4.33;;
249;SDS011;109;19.806;-70.704;2024-02-04T08:24:20;23.33;;;4.40;;
249;SDS011;109;19.806;-70.704;2024-02-04T08:26:46;13.30;;;5.00;;
249;SDS011;109;19.806;-70.704;2024-02-04T08:29:20;15.53;;;4.90;;
249;SDS011;109;19.806;-70.704;2024-02-04T08:31:46;18.50;;;5.40;;
249;SDS011;109;19.806;-70.704;2024-02-04T08:34:19;9.50;;;4.33;;
249;SDS011;109;19.806;-70.704;2024-02-04T08:36:49;14.13;;;4.10;;
249;SDS011;109;19.806;-70.704;2024-02-04T08:39:22;17.53;;;5.23;;
249;SDS011;109;19.806;-70.704;2024-02-04T08:42:02;17.90;;;4.30;;
249;SDS011;109;19.806;-70.704;2024-02-04T08:44:29;12.23;;;4.43;;
249;SDS011;109;19.806;-70.704;2024-02-04T08:47:01;17.20;;;4.60;;
249;SDS011;109;19.806;-70.704;2024-02-04T08:49:29;20.13;;;5.00;;
249;SDS011;109;19.806;-70.704;2024-02-04T08:52:02;23.03;;;4.57;;
249;SDS011;109;19.806;-70.704;2024-02-04T08:54:29;15.80;;;7.20;;
249;SDS011;109;19.806;-70.704;2024-02-04T08:57:03;36.67;;;6.77;;
249;SDS011;109;19.806;-70.704;2024-02-04T08:59:30;13.80;;;5.40;;
249;SDS011;109;19.806;-70.704;2024-02-04T09:02:03;20.03;;;5.10;;
249;SDS011;109;19.806;-70.704;2024-02-04T09:04:30;17.63;;;4.53;;
249;SDS011;109;19.806;-70.704;2024-02-04T09:07:03;21.33;;;4.77;;
249;SDS011;109;19.806;-70.704;2024-02-04T09:09:30;17.33;;;4.90;;
249;SDS011;109;19.806;-70.704;2024-02-04T09:12:03;23.77;;;5.27;;
249;SDS011;109;19.806;-70.704;2024-02-04T09:14:30;31.67;;;5.70;;
249;SDS011;109;19.806;-70.704;2024-02-04T09:17:04;18.53;;;5.13;;
249;SDS011;109;19.806;-70.704;2024-02-04T09:19:32;16.73;;;4.93;;
249;SDS011;109;19.806;-70.704;2024-02-04T09:22:05;17.80;;;5.87;;
249;SDS011;109;19.806;-70.704;2024-02-04T09:24:32;20.07;;;4.90;;
249;SDS011;109;19.806;-70.704;2024-02-04T09:27:05;21.67;;;5.17;;
249;SDS011;109;19.806;-70.704;2024-02-04T09:29:34;24.03;;;6.30;;
249;SDS011;109;19.806;-70.704;2024-02-04T09:32:07;17.43;;;5.17;;
249;SDS011;109;19.806;-70.704;2024-02-04T09:34:33;19.73;;;5.03;;
249;SDS011;109;19.806;-70.704;2024-02-04T09:37:13;22.17;;;5.33;;
249;SDS011;109;19.806;-70.704;2024-02-04T09:39:46;11.60;;;5.07;;
249;SDS011;109;19.806;-70.704;2024-02-04T09:42:15;21.83;;;5.60;;
249;SDS011;109;19.806;-70.704;2024-02-04T09:44:53;14.73;;;5.10;;
249;SDS011;109;19.806;-70.704;2024-02-04T09:47:20;15.50;;;5.20;;
249;SDS011;109;19.806;-70.704;2024-02-04T09:49:53;15.77;;;4.70;;
249;SDS011;109;19.806;-70.704;2024-02-04T09:52:23;22.57;;;5.47;;
249;SDS011;109;19.806;-70.704;2024-02-04T09:55:02;16.37;;;5.03;;
249;SDS011;109;19.806;-70.704;2024-02-04T09:57:31;10.10;;;5.13;;
249;SDS011;109;19.806;-70.704;2024-02-04T10:00:05;28.20;;;5.80;;
249;SDS011;109;19.806;-70.704;2024-02-04T10:02:41;16.03;;;4.90;;
249;SDS011;109;19.806;-70.704;2024-02-04T10:05:17;19.50;;;5.33;;
249;SDS011;109;19.806;-70.704;2024-02-04T10:07:44;20.00;;;6.13;;
249;SDS011;109;19.806;-70.704;2024-02-04T10:10:16;20.67;;;5.33;;
249;SDS011;109;19.806;-70.704;2024-02-04T10:12:43;10.90;;;5.80;;
249;SDS011;109;19.806;-70.704;2024-02-04T10:15:16;21.80;;;5.77;;
249;SDS011;109;19.806;-70.704;2024-02-04T10:17:45;22.63;;;5.80;;
249;SDS011;109;19.806;-70.704;2024-02-04T10:20:18;23.43;;;6.20;;
249;SDS011;109;19.806;-70.704;2024-02-04T10:22:45;35.70;;;7.33;;
249;SDS011;109;19.806;-70.704;2024-02-04T10:25:19;27.33;;;6.90;;
249;SDS011;109;19.806;-70.704;2024-02-04T10:27:46;22.83;;;6.43;;
249;SDS011;109;19.806;-70.704;2024-02-04T10:30:20;16.27;;;7.40;;
249;SDS011;109;19.806;-70.704;2024-02-04T10:32:50;22.50;;;6.47;;
249;SDS011;109;19.806;-70.704;2024-02-04T10:35:23;18.93;;;5.50;;
249;SDS011;109;19.806;-70.704;2024-02-04T10:37:50;12.10;;;5.70;;
249;SDS011;109;19.806;-70.704;2024-02-04T10:40:23;14.27;;;5.17;;
249;SDS011;109;19.806;-70.704;2024-02-04T10:42:53;12.00;;;5.77;;
249;SDS011;109;19.806;-70.704;2024-02-04T10:45:29;19.87;;;5.73;;
249;SDS011;109;19.806;-70.704;2024-02-04T10:47:58;17.10;;;5.70;;
249;SDS011;109;19.806;-70.704;2024-02-04T10:50:27;10.47;;;4.80;;
249;SDS011;109;19.806;-70.704;2024-02-04T10:52:58;16.40;;;6.50;;
249;SDS011;109;19.806;-70.704;2024-02-04T10:55:28;10.13;;;5.93;;
249;SDS011;109;19.806;-70.704;2024-02-04T10:57:56;19.83;;;5.83;;
249;SDS011;109;19.806;-70.704;2024-02-04T11:00:24;15.87;;;6.43;;
249;SDS011;109;19.806;-70.704;2024-02-04T11:02:51;20.30;;;6.20;;
249;SDS011;109;19.806;-70.704;2024-02-04T11:05:19;25.00;;;6.40;;
249;SDS011;109;19.806;-70.704;2024-02-04T11:07:50;19.13;;;6.13;;
249;SDS011;109;19.806;-70.704;2024-02-04T11:10:17;17.73;;;6.83;;
249;SDS011;109;19.806;-70.704;2024-02-04T11:12:45;18.83;;;6.73;;
249;SDS011;109;19.806;-70.704;2024-02-04T11:15:14;18.63;;;6.90;;
249;SDS011;109;19.806;-70.704;2024-02-04T11:21:03;31.93;;;8.10;;
249;SDS011;109;19.806;-70.704;2024-02-04T11:26:25;17.07;;;6.63;;
249;SDS011;109;19.806;-70.704;2024-02-04T11:28:52;19.77;;;7.17;;
249;SDS011;109;19.806;-70.704;2024-02-04T11:31:18;20.13;;;7.50;;
249;SDS011;109;19.806;-70.704;2024-02-04T11:33:45;16.13;;;7.23;;
249;SDS011;109;19.806;-70.704;2024-02-04T11:36:13;21.13;;;7.57;;
249;SDS011;109;19.806;-70.704;2024-02-04T11:38:40;22.77;;;7.97;;
249;SDS011;109;19.806;-70.704;2024-02-04T11:41:07;20.63;;;8.80;;
249;SDS011;109;19.806;-70.704;2024-02-04T11:43:34;14.40;;;6.83;;
249;SDS011;109;19.806;-70.704;2024-02-04T11:46:03;14.87;;;7.20;;
249;SDS011;109;19.806;-70.704;2024-02-04T11:48:30;24.10;;;7.80;;
249;SDS011;109;19.806;-70.704;2024-02-04T11:50:59;16.63;;;7.90;;
249;SDS011;109;19.806;-70.704;2024-02-04T11:53:29;19.23;;;8.40;;
249;SDS011;109;19.806;-70.704;2024-02-04T11:55:58;22.13;;;8.37;;
249;SDS011;109;19.806;-70.704;2024-02-04T11:58:29;17.43;;;7.53;;
249;SDS011;109;19.806;-70.704;2024-02-04T12:00:57;11.67;;;7.60;;
249;SDS011;109;19.806;-70.704;2024-02-04T12:03:30;18.67;;;8.10;;
249;SDS011;109;19.806;-70.704;2024-02-04T12:05:58;20.97;;;7.33;;
249;SDS011;109;19.806;-70.704;2024-02-04T12:08:29;15.90;;;8.03;;
249;SDS011;109;19.806;-70.704;2024-02-04T12:10:57;14.70;;;7.40;;
249;SDS011;109;19.806;-70.704;2024-02-04T12:13:25;28.20;;;9.37;;
249;SDS011;109;19.806;-70.704;2024-02-04T12:15:51;17.13;;;9.70;;
249;SDS011;109;19.806;-70.704;2024-02-04T12:18:17;21.33;;;10.43;;
249;SDS011;109;19.806;-70.704;2024-02-04T12:20:46;21.67;;;9.67;;
249;SDS011;109;19.806;-70.704;2024-02-04T12:23:17;19.70;;;10.37;;
249;SDS011;109;19.806;-70.704;2024-02-04T12:25:49;26.33;;;11.47;;
249;SDS011;109;19.806;-70.704;2024-02-04T12:28:16;24.77;;;12.03;;
249;SDS011;109;19.806;-70.704;2024-02-04T12:30:52;29.43;;;12.00;;
249;SDS011;109;19.806;-70.704;2024-02-04T12:33:24;26.77;;;11.63;;
249;SDS011;109;19.806;-70.704;2024-02-04T12:35:52;26.23;;;11.40;;
249;SDS011;109;19.806;-70.704;2024-02-04T12:38:21;25.10;;;11.77;;
249;SDS011;109;19.806;-70.704;2024-02-04T12:40:48;26.53;;;11.27;;
249;SDS011;109;19.806;-70.704;2024-02-04T12:43:14;23.40;;;11.10;;
249;SDS011;109;19.806;-70.704;2024-02-04T12:45:41;22.80;;;10.90;;
249;SDS011;109;19.806;-70.704;2024-02-04T12:48:07;37.57;;;13.23;;
249;SDS011;109;19.806;-70.704;2024-02-04T12:50:36;25.10;;;11.50;;
249;SDS011;109;19.806;-70.704;2024-02-04T12:53:07;34.00;;;12.20;;
249;SDS011;109;19.806;-70.704;2024-02-04T12:55:38;29.90;;;11.43;;
249;SDS011;109;19.806;-70.704;2024-02-04T12:58:08;31.00;;;12.50;;
249;SDS011;109;19.806;-70.704;2024-02-04T13:00:38;33.23;;;11.37;;
249;SDS011;109;19.806;-70.704;2024-02-04T13:03:05;25.80;;;10.67;;
249;SDS011;109;19.806;-70.704;2024-02-04T13:05:34;32.37;;;12.20;;
249;SDS011;109;19.806;-70.704;2024-02-04T13:08:01;24.03;;;9.97;;
249;SDS011;109;19.806;-70.704;2024-02-04T13:10:30;25.20;;;11.50;;
249;SDS011;109;19.806;-70.704;2024-02-04T13:13:05;27.63;;;11.40;;
249;SDS011;109;19.806;-70.704;2024-02-04T13:15:37;35.33;;;12.50;;
249;SDS011;109;19.806;-70.704;2024-02-04T13:18:08;23.90;;;11.30;;
249;SDS011;109;19.806;-70.704;2024-02-04T13:20:37;14.70;;;10.47;;
249;SDS011;109;19.806;-70.704;2024-02-04T13:23:04;17.83;;;10.67;;
249;SDS011;109;19.806;-70.704;2024-02-04T13:25:30;15.20;;;10.57;;
249;SDS011;109;19.806;-70.704;2024-02-04T13:27:57;17.60;;;9.97;;
249;SDS011;109;19.806;-70.704;2024-02-04T13:30:24;16.90;;;9.90;;
249;SDS011;109;19.806;-70.704;2024-02-04T13:32:50;14.63;;;9.77;;
249;SDS011;109;19.806;-70.704;2024-02-04T13:35:17;18.17;;;10.57;;
249;SDS011;109;19.806;-70.704;2024-02-04T13:37:45;19.03;;;9.73;;
249;SDS011;109;19.806;-70.704;2024-02-04T13:40:13;16.73;;;9.50;;
249;SDS011;109;19.806;-70.704;2024-02-04T13:42:41;15.20;;;9.93;;
249;SDS011;109;19.806;-70.704;2024-02-04T13:45:07;26.23;;;10.60;;
249;SDS011;109;19.806;-70.704;2024-02-04T13:47:34;23.13;;;8.53;;
249;SDS011;109;19.806;-70.704;2024-02-04T13:50:01;29.97;;;8.77;;
249;SDS011;109;19.806;-70.704;2024-02-04T13:52:28;25.10;;;8.70;;
249;SDS011;109;19.806;-70.704;2024-02-04T13:54:55;24.40;;;9.50;;
249;SDS011;109;19.806;-70.704;2024-02-04T13:57:21;28.70;;;9.10;;
249;SDS011;109;19.806;-70.704;2024-02-04T13:59:48;18.33;;;8.50;;
249;SDS011;109;19.806;-70.704;2024-02-04T14:02:15;23.30;;;9.37;;
249;SDS011;109;19.806;-70.704;2024-02-04T14:04:41;27.03;;;9.43;;
249;SDS011;109;19.806;-70.704;2024-02-04T14:07:08;36.30;;;9.70;;
249;SDS011;109;19.806;-70.704;2024-02-04T14:09:36;24.53;;;9.17;;
249;SDS011;109;19.806;-70.704;2024-02-04T14:12:02;27.13;;;12.57;;
249;SDS011;109;19.806;-70.704;2024-02-04T14:14:29;23.57;;;10.37;;
249;SDS011;109;19.806;-70.704;2024-02-04T14:16:56;22.87;;;9.47;;
249;SDS011;109;19.806;-70.704;2024-02-04T14:19:22;23.07;;;10.13;;
249;SDS011;109;19.806;-70.704;2024-02-04T14:21:49;24.90;;;10.63;;
249;SDS011;109;19.806;-70.704;2024-02-04T14:24:15;21.20;;;10.87;;
249;SDS011;109;19.806;-70.704;2024-02-04T14:26:41;27.40;;;10.70;;
249;SDS011;109;19.806;-70.704;2024-02-04T14:29:09;23.40;;;10.23;;
249;SDS011;109;19.806;-70.704;2024-02-04T14:31:36;43.33;;;10.70;;
249;SDS011;109;19.806;-70.704;2024-02-04T14:34:02;33.57;;;12.27;;
249;SDS011;109;19.806;-70.704;2024-02-04T14:36:28;32.67;;;11.43;;
249;SDS011;109;19.806;-70.704;2024-02-04T14:38:56;28.20;;;11.63;;
249;SDS011;109;19.806;-70.704;2024-02-04T14:41:23;32.37;;;11.80;;
249;SDS011;109;19.806;-70.704;2024-02-04T14:43:49;28.63;;;11.47;;
249;SDS011;109;19.806;-70.704;2024-02-04T14:46:16;30.67;;;12.60;;
249;SDS011;109;19.806;-70.704;2024-02-04T14:48:43;31.20;;;12.37;;
249;SDS011;109;19.806;-70.704;2024-02-04T14:51:09;29.40;;;13.73;;
249;SDS011;109;19.806;-70.704;2024-02-04T14:53:36;35.20;;;14.10;;
249;SDS011;109;19.806;-70.704;2024-02-04T14:56:03;24.57;;;13.00;;
249;SDS011;109;19.806;-70.704;2024-02-04T14:58:29;27.53;;;14.13;;
249;SDS011;109;19.806;-70.704;2024-02-04T15:00:56;36.10;;;14.60;;
249;SDS011;109;19.806;-70.704;2024-02-04T15:03:23;35.77;;;16.00;;
249;SDS011;109;19.806;-70.704;2024-02-04T15:05:49;29.27;;;14.80;;
249;SDS011;109;19.806;-70.704;2024-02-04T15:08:19;39.83;;;15.27;;
249;SDS011;109;19.806;-70.704;2024-02-04T15:10:46;37.00;;;16.20;;
249;SDS011;109;19.806;-70.704;2024-02-04T15:13:13;31.47;;;16.57;;
249;SDS011;109;19.806;-70.704;2024-02-04T15:15:40;28.80;;;16.40;;
249;SDS011;109;19.806;-70.704;2024-02-04T15:18:07;49.33;;;16.80;;
249;SDS011;109;19.806;-70.704;2024-02-04T15:20:34;35.20;;;17.13;;
249;SDS011;109;19.806;-70.704;2024-02-04T15:23:02;31.07;;;15.80;;
249;SDS011;109;19.806;-70.704;2024-02-04T15:25:29;35.63;;;16.70;;
249;SDS011;109;19.806;-70.704;2024-02-04T15:27:56;27.50;;;16.00;;
249;SDS011;109;19.806;-70.704;2024-02-04T15:30:23;30.13;;;16.60;;